Skardu Weather



Skardu's Current Weather

Temprature 2.066o broken clouds

broken clouds

Rain: 0 %

Min Temprature2.066o
Max Temprature2.066o
Humidity48
Wind Speed1.37 m/h
Sun Rise05:18:12
Sun Set18:34:00
Current Time: 21-Apr-2019 05:15:56
Lat/Lon: 35.29, 75.63




Skardu's Geo Location



Skardu's Weather Forecast

Time Overall Temp Min Temp Max Temp Humidity Wind Speed Rain
21-Apr-2019 (Sun)
08:00:00 few clouds 3.470 3.469 3.470 39 1.32 m/h 0 %
11:00:00 few clouds 6.350 6.350 6.350 32 1.1 m/h 0 %
14:00:00 few clouds 8.450 8.450 8.450 30 1.12 m/h 0 %
17:00:00 few clouds 8.350 8.350 8.350 32 1.11 m/h 0 %
20:00:00 clear sky 6.850 6.850 6.850 38 0.89 m/h 0 %
23:00:00 clear sky 5.200 5.200 5.200 42 0.55 m/h 0 %
22-Apr-2019 (Mon)
02:00:00 clear sky 3.370 3.370 3.370 47 0.87 m/h 0 %
05:00:00 clear sky 1.894 1.894 1.894 48 1.22 m/h 0 %
08:00:00 clear sky 4.196 4.196 4.196 38 1.75 m/h 0 %
11:00:00 clear sky 7.320 7.320 7.320 31 1.31 m/h 0 %
14:00:00 clear sky 9.615 9.615 9.615 27 0.75 m/h 0 %
17:00:00 clear sky 9.631 9.631 9.631 28 1.28 m/h 0 %
20:00:00 clear sky 7.950 7.950 7.950 33 1.74 m/h 0 %
23:00:00 clear sky 6.196 6.196 6.196 39 1.19 m/h 0 %
23-Apr-2019 (Tue)
02:00:00 clear sky 4.377 4.377 4.377 44 1.42 m/h 0 %
05:00:00 clear sky 2.766 2.766 2.766 46 1.26 m/h 0 %
08:00:00 clear sky 5.597 5.597 5.597 35 2.03 m/h 0 %
11:00:00 clear sky 9.150 9.150 9.150 27 2.17 m/h 0 %
14:00:00 clear sky 11.550 11.550 11.550 20 1.86 m/h 0 %
17:00:00 clear sky 11.650 11.650 11.650 20 2.29 m/h 0 %
20:00:00 few clouds 9.928 9.928 9.928 26 2.25 m/h 0 %
23:00:00 scattered clouds 8.050 8.050 8.050 35 1.18 m/h 0 %
24-Apr-2019 (Wed)
02:00:00 overcast clouds 6.782 6.782 6.782 38 1.29 m/h 0 %
05:00:00 light snow 5.544 5.544 5.544 44 1.62 m/h 0 %
08:00:00 light snow 5.950 5.950 5.950 42 1.85 m/h 0 %
11:00:00 light snow 7.009 7.009 7.009 43 2.83 m/h 0 %
14:00:00 light snow 8.150 8.150 8.150 44 3.6 m/h 0 %
17:00:00 light rain 7.550 7.550 7.550 48 4.53 m/h 44 %
20:00:00 light rain 6.155 6.155 6.155 57 3.83 m/h 75 %
23:00:00 light rain 5.445 5.445 5.445 66 2.7 m/h 156 %
25-Apr-2019 (Thu)
02:00:00 light rain 4.450 4.450 4.450 73 2.27 m/h 138 %
05:00:00 snow 3.262 3.262 3.262 79 1.96 m/h 0 %
08:00:00 light rain 4.820 4.820 4.820 78 1.82 m/h 181 %
11:00:00 light snow 7.590 7.590 7.590 54 3.07 m/h 0 %
14:00:00 light snow 9.250 9.250 9.250 38 4.07 m/h 0 %
17:00:00 broken clouds 8.211 8.211 8.211 35 3.81 m/h 0 %
20:00:00 broken clouds 5.625 5.625 5.625 48 2.12 m/h 0 %
23:00:00 broken clouds 3.743 3.743 3.743 52 0.79 m/h 0 %
26-Apr-2019 (Fri)
02:00:00 light snow 2.732 2.732 2.732 55 0.78 m/h 0 %
05:00:00 light snow 2.296 2.296 2.296 58 1.87 m/h 0 %


Skardu's Tourist Spots

Hotels and Restaurants in Skardu

Famous Cities (60)